Time;durP1;ratioP1;P1;durP2;ratioP2;P2;SDS_P1;SDS_P2;PMS_P1;PMS_P2;Temp;Humidity;BMP_temperature;BMP_pressure;BME280_temperature;BME280_humidity;BME280_pressure;Samples;Min_cycle;Max_cycle;Signal;HPM_P1;HPM_P2
2023/08/10 00:00:51;;;;;;;3.43;3.33;;;13.40;74.70;;;;;;6242808;28;20247;-83
2023/08/10 00:03:54;;;;;;;3.70;3.60;;;13.40;74.80;;;;;;6239357;28;20244;-84
2023/08/10 00:06:57;;;;;;;3.37;3.27;;;13.30;74.80;;;;;;6247931;28;20235;-84
2023/08/10 00:10:01;;;;;;;3.67;3.57;;;13.30;74.70;;;;;;6233339;28;20245;-83
2023/08/10 00:13:08;;;;;;;3.97;3.87;;;13.30;74.90;;;;;;6240767;28;20646;-84
2023/08/10 00:16:11;;;;;;;3.27;3.17;;;13.20;75.00;;;;;;6246906;28;20240;-85
2023/08/10 00:19:15;;;;;;;3.50;3.30;;;13.20;75.10;;;;;;6244867;28;20235;-85
2023/08/10 00:22:18;;;;;;;3.60;3.50;;;13.10;75.30;;;;;;6230306;28;20239;-85
2023/08/10 00:25:22;;;;;;;3.87;3.73;;;13.10;75.30;;;;;;6225182;28;20235;-82
2023/08/10 00:28:27;;;;;;;3.53;3.43;;;13.10;75.40;;;;;;6239151;28;20234;-86
2023/08/10 00:31:30;;;;;;;3.80;3.57;;;13.10;75.50;;;;;;6241963;28;20275;-85
2023/08/10 00:34:34;;;;;;;3.83;3.63;;;13.10;75.60;;;;;;6246628;28;20329;-83
2023/08/10 00:37:37;;;;;;;4.03;3.80;;;13.10;75.60;;;;;;6242055;28;20237;-85
2023/08/10 00:40:40;;;;;;;3.90;3.80;;;13.10;75.80;;;;;;6237926;28;20234;-83
2023/08/10 00:43:45;;;;;;;3.43;3.33;;;13.10;75.80;;;;;;6246674;28;20258;-85
2023/08/10 00:46:49;;;;;;;4.30;4.10;;;13.20;75.80;;;;;;6249277;28;20231;-83
2023/08/10 00:49:53;;;;;;;3.70;3.50;;;13.20;75.80;;;;;;6235775;28;20246;-84
2023/08/10 00:52:57;;;;;;;3.80;3.70;;;13.30;75.90;;;;;;6236192;28;20740;-84
2023/08/10 00:56:02;;;;;;;3.53;3.50;;;13.30;75.90;;;;;;6240433;28;20277;-84
2023/08/10 00:59:11;;;;;;;4.00;3.80;;;13.30;75.80;;;;;;6228448;28;20250;-85
2023/08/10 01:02:14;;;;;;;3.83;3.63;;;13.30;75.90;;;;;;6238957;28;20266;-83
2023/08/10 01:05:17;;;;;;;3.73;3.63;;;13.30;75.90;;;;;;6250278;28;20242;-83
2023/08/10 01:08:27;;;;;;;3.60;3.50;;;13.30;75.90;;;;;;6234676;28;20738;-85
2023/08/10 01:11:38;;;;;;;3.57;3.47;;;13.30;75.90;;;;;;6252828;28;20309;-85
2023/08/10 01:15:02;;;;;;;3.43;3.33;;;13.30;76.00;;;;;;6240016;28;20250;-84
2023/08/10 01:18:10;;;;;;;4.27;4.00;;;13.20;76.00;;;;;;6235010;28;20231;-86
2023/08/10 01:21:27;;;;;;;3.80;3.70;;;13.20;76.10;;;;;;6222279;28;20250;-83
2023/08/10 01:24:38;;;;;;;3.43;3.33;;;13.20;76.20;;;;;;6238498;28;20254;-86
2023/08/10 01:27:45;;;;;;;3.33;3.23;;;13.20;76.20;;;;;;6225732;28;20273;-84
2023/08/10 01:30:48;;;;;;;3.43;3.33;;;13.20;76.20;;;;;;6236035;28;20234;-83
2023/08/10 01:33:52;;;;;;;3.57;3.47;;;13.10;76.30;;;;;;6233370;28;20272;-83
2023/08/10 01:36:55;;;;;;;3.70;3.60;;;13.20;76.30;;;;;;6228338;28;20227;-83
2023/08/10 01:39:58;;;;;;;3.80;3.70;;;13.10;76.40;;;;;;6239307;28;20311;-84
2023/08/10 01:43:04;;;;;;;4.30;4.10;;;13.10;76.50;;;;;;6236698;28;20245;-84
2023/08/10 01:46:10;;;;;;;3.80;3.70;;;13.10;76.60;;;;;;6237471;28;20273;-83
2023/08/10 01:49:17;;;;;;;3.37;3.37;;;13.10;76.60;;;;;;6237405;28;20245;-85
2023/08/10 01:52:23;;;;;;;3.60;3.60;;;13.00;76.70;;;;;;6224127;28;20597;-85
2023/08/10 01:55:32;;;;;;;3.87;3.77;;;13.00;76.70;;;;;;6231510;28;20278;-83
2023/08/10 01:58:38;;;;;;;3.73;3.53;;;13.00;76.80;;;;;;6239562;28;20239;-84
2023/08/10 02:01:41;;;;;;;3.67;3.57;;;13.00;76.90;;;;;;6230417;28;20241;-84
2023/08/10 02:04:44;;;;;;;3.63;3.53;;;12.90;76.90;;;;;;6227231;28;20246;-83
2023/08/10 02:07:49;;;;;;;4.10;3.73;;;12.90;77.00;;;;;;6238495;28;20258;-86
2023/08/10 02:10:52;;;;;;;4.03;3.93;;;12.90;77.00;;;;;;6230489;28;20250;-84
2023/08/10 02:13:57;;;;;;;4.33;3.97;;;12.90;77.00;;;;;;6234408;28;20241;-84
2023/08/10 02:17:00;;;;;;;3.90;3.70;;;12.90;77.10;;;;;;6233208;28;20239;-84
2023/08/10 02:20:11;;;;;;;3.60;3.50;;;12.80;77.10;;;;;;6217092;28;20254;-85
2023/08/10 02:23:15;;;;;;;3.90;3.80;;;12.80;77.20;;;;;;6232844;28;20239;-84
2023/08/10 02:26:18;;;;;;;4.33;4.03;;;12.80;77.30;;;;;;6229015;28;20262;-84
2023/08/10 02:29:23;;;;;;;4.03;3.83;;;12.80;77.50;;;;;;6221562;28;20644;-85
2023/08/10 02:32:26;;;;;;;4.40;4.10;;;12.80;77.50;;;;;;6233319;28;20236;-83
2023/08/10 02:35:30;;;;;;;4.50;4.20;;;12.70;77.60;;;;;;6236247;28;20734;-85
2023/08/10 02:38:33;;;;;;;4.63;4.43;;;12.70;77.80;;;;;;6247302;28;20238;-85
2023/08/10 02:41:36;;;;;;;3.93;3.83;;;12.70;77.70;;;;;;6220720;28;20242;-85
2023/08/10 02:44:41;;;;;;;4.20;4.00;;;12.70;77.70;;;;;;6244023;28;20780;-85
2023/08/10 02:47:45;;;;;;;4.20;4.00;;;12.70;77.90;;;;;;6228646;28;22979;-85
2023/08/10 02:50:49;;;;;;;3.90;3.57;;;12.70;77.80;;;;;;6249317;28;20238;-84
2023/08/10 02:53:52;;;;;;;4.23;3.87;;;12.70;77.70;;;;;;6255139;28;20237;-85
2023/08/10 02:56:55;;;;;;;4.00;3.70;;;12.70;77.60;;;;;;6221163;28;20234;-86
2023/08/10 03:00:01;;;;;;;3.93;3.47;;;12.70;77.60;;;;;;6235551;28;20254;-86
2023/08/10 03:03:05;;;;;;;3.30;3.20;;;12.70;77.50;;;;;;6246230;28;20412;-85
2023/08/10 03:06:08;;;;;;;3.50;3.30;;;12.70;77.50;;;;;;6238668;28;20237;-83
2023/08/10 03:09:13;;;;;;;2.97;2.87;;;12.60;77.50;;;;;;6230346;28;20880;-86
2023/08/10 03:12:16;;;;;;;4.37;3.37;;;12.50;77.40;;;;;;6251758;28;20230;-83
2023/08/10 03:15:22;;;;;;;3.77;3.57;;;12.50;77.40;;;;;;6257651;28;20234;-86
2023/08/10 03:18:25;;;;;;;4.33;3.20;;;12.50;77.30;;;;;;6245883;28;20234;-84
2023/08/10 03:21:31;;;;;;;4.37;3.53;;;12.50;77.20;;;;;;6249047;28;20230;-85
2023/08/10 03:24:36;;;;;;;4.00;3.70;;;12.50;77.10;;;;;;6266881;28;20321;-86
2023/08/10 03:27:39;;;;;;;3.17;2.90;;;12.50;77.10;;;;;;6258813;28;20235;-85
2023/08/10 03:30:44;;;;;;;3.23;3.07;;;12.50;77.00;;;;;;6253681;28;20257;-88
2023/08/10 03:33:47;;;;;;;3.57;3.37;;;12.50;77.00;;;;;;6259841;28;21588;-87
2023/08/10 03:36:55;;;;;;;3.57;3.37;;;12.50;77.10;;;;;;6264707;28;20583;-86
2023/08/10 03:39:59;;;;;;;3.53;3.30;;;12.50;77.10;;;;;;6255630;28;20246;-87
2023/08/10 03:43:02;;;;;;;4.13;3.70;;;12.50;77.10;;;;;;6264808;28;20238;-86
2023/08/10 03:46:07;;;;;;;3.57;3.37;;;12.50;77.00;;;;;;6264541;28;20712;-90
2023/08/10 03:49:11;;;;;;;3.90;3.20;;;12.50;77.00;;;;;;6265214;28;20230;-86
2023/08/10 03:52:14;;;;;;;3.97;3.67;;;12.50;77.10;;;;;;6269716;28;20241;-84
2023/08/10 03:55:19;;;;;;;3.37;3.27;;;12.50;77.10;;;;;;6267495;28;20234;-86
2023/08/10 03:58:22;;;;;;;3.57;3.27;;;12.50;77.00;;;;;;6267642;28;20241;-86
2023/08/10 04:01:29;;;;;;;3.40;3.30;;;12.50;77.00;;;;;;6261954;28;20227;-85
2023/08/10 04:04:32;;;;;;;3.80;3.60;;;12.50;77.00;;;;;;6271672;28;20233;-87
2023/08/10 04:07:37;;;;;;;3.40;3.30;;;12.50;77.00;;;;;;6280410;28;20713;-86
2023/08/10 04:10:53;;;;;;;3.57;3.37;;;12.50;77.10;;;;;;6238353;28;20250;-89
2023/08/10 04:13:56;;;;;;;2.80;2.80;;;12.50;77.10;;;;;;6268803;28;20231;-87
2023/08/10 04:17:01;;;;;;;3.73;3.63;;;12.50;77.10;;;;;;6271870;28;20237;-85
2023/08/10 04:20:08;;;;;;;5.77;3.63;;;12.50;77.10;;;;;;6255065;28;20720;-85
2023/08/10 04:23:12;;;;;;;3.77;3.50;;;12.50;77.30;;;;;;6260128;28;20310;-86
2023/08/10 04:26:15;;;;;;;5.17;3.50;;;12.50;77.20;;;;;;6270317;28;20248;-87
2023/08/10 04:29:18;;;;;;;7.17;4.30;;;12.60;77.30;;;;;;6261670;28;20238;-86
2023/08/10 04:32:23;;;;;;;3.40;3.30;;;12.70;77.40;;;;;;6267803;28;20244;-85
2023/08/10 04:35:27;;;;;;;3.60;3.40;;;12.70;77.40;;;;;;6258947;28;20233;-84
2023/08/10 04:38:30;;;;;;;4.33;3.67;;;12.80;77.30;;;;;;6266738;28;20732;-86
2023/08/10 04:41:34;;;;;;;3.90;3.63;;;12.90;77.30;;;;;;6259500;28;20252;-88
2023/08/10 04:44:37;;;;;;;3.90;3.60;;;13.00;77.30;;;;;;6273528;28;20240;-85
2023/08/10 04:47:42;;;;;;;3.83;3.53;;;13.10;77.10;;;;;;6271572;28;20356;-87
2023/08/10 04:50:45;;;;;;;6.77;3.67;;;13.20;76.70;;;;;;6271330;28;20747;-88
2023/08/10 04:53:49;;;;;;;3.03;2.90;;;13.30;76.10;;;;;;6272782;28;20783;-86
2023/08/10 04:56:53;;;;;;;3.40;3.17;;;13.40;76.00;;;;;;6272861;28;20734;-88
2023/08/10 04:59:56;;;;;;;3.37;3.17;;;13.50;75.70;;;;;;6271915;28;20237;-86
2023/08/10 05:03:01;;;;;;;3.67;3.47;;;13.60;75.40;;;;;;6229020;28;20245;-86
2023/08/10 05:06:04;;;;;;;3.83;3.53;;;13.70;74.90;;;;;;6264347;28;20230;-87
2023/08/10 05:09:08;;;;;;;3.13;3.03;;;13.80;74.80;;;;;;6262605;28;20252;-88
2023/08/10 05:12:11;;;;;;;3.40;3.30;;;13.90;74.70;;;;;;6248383;28;20241;-87
2023/08/10 05:15:15;;;;;;;3.77;3.40;;;13.90;74.30;;;;;;6259768;28;20233;-87
2023/08/10 05:18:22;;;;;;;5.80;3.97;;;14.10;72.90;;;;;;6266578;28;20237;-87
2023/08/10 05:21:25;;;;;;;4.77;3.83;;;14.20;72.00;;;;;;6259733;28;20237;-86
2023/08/10 05:24:29;;;;;;;8.40;3.47;;;14.40;71.50;;;;;;6262419;28;20432;-87
2023/08/10 05:27:32;;;;;;;8.60;3.90;;;14.60;70.90;;;;;;6253724;28;20231;-86
2023/08/10 05:30:39;;;;;;;4.33;3.67;;;14.60;70.50;;;;;;6248332;28;20234;-86
2023/08/10 05:33:45;;;;;;;6.23;3.53;;;14.60;70.50;;;;;;6244446;28;20408;-87
2023/08/10 05:36:48;;;;;;;4.90;3.40;;;14.60;70.30;;;;;;6254087;28;20789;-82
2023/08/10 05:39:52;;;;;;;4.17;3.33;;;14.60;70.20;;;;;;6256108;28;20241;-80
2023/08/10 05:42:56;;;;;;;6.77;3.53;;;14.60;69.60;;;;;;6256826;28;20256;-81
2023/08/10 05:45:59;;;;;;;5.63;3.07;;;14.70;69.10;;;;;;6259291;28;20247;-80
2023/08/10 05:49:04;;;;;;;4.23;3.80;;;14.70;69.10;;;;;;6264809;28;20253;-82
2023/08/10 05:52:08;;;;;;;5.20;3.60;;;14.80;68.80;;;;;;6261263;28;20968;-81
2023/08/10 05:55:12;;;;;;;7.17;3.53;;;14.90;67.90;;;;;;6266972;28;20237;-80
2023/08/10 05:58:15;;;;;;;6.50;3.00;;;15.00;67.10;;;;;;6267694;28;20237;-83
2023/08/10 06:01:18;;;;;;;4.10;3.23;;;15.40;66.70;;;;;;6271062;28;20242;-80
2023/08/10 06:04:24;;;;;;;3.87;3.07;;;15.60;66.50;;;;;;6270884;28;20254;-80
2023/08/10 06:07:27;;;;;;;9.63;3.23;;;15.80;65.80;;;;;;6265759;28;20253;-81
2023/08/10 06:10:30;;;;;;;3.77;3.30;;;15.80;65.10;;;;;;6268891;28;20241;-81
2023/08/10 06:13:34;;;;;;;7.43;4.03;;;15.90;65.30;;;;;;6259876;28;20315;-81
2023/08/10 06:16:38;;;;;;;4.13;3.30;;;16.00;64.80;;;;;;6265151;28;20607;-80
2023/08/10 06:19:50;;;;;;;4.40;2.80;;;16.10;65.00;;;;;;6266208;28;20238;-80
2023/08/10 06:22:53;;;;;;;3.40;3.10;;;16.20;65.20;;;;;;6260442;28;20226;-80
2023/08/10 06:25:56;;;;;;;4.60;3.43;;;16.40;63.40;;;;;;6255813;28;20313;-80
2023/08/10 06:29:00;;;;;;;3.90;2.90;;;16.40;62.70;;;;;;6266765;28;20261;-81
2023/08/10 06:32:06;;;;;;;3.53;3.23;;;16.40;61.90;;;;;;6266615;28;20722;-81
2023/08/10 06:35:11;;;;;;;11.60;3.30;;;16.50;62.20;;;;;;6243942;28;20253;-79
2023/08/10 06:38:14;;;;;;;6.30;3.23;;;16.60;62.90;;;;;;6266159;28;20303;-81
2023/08/10 06:41:18;;;;;;;8.63;3.47;;;16.70;62.60;;;;;;6270966;28;20261;-79
2023/08/10 06:44:21;;;;;;;9.30;3.13;;;16.70;61.80;;;;;;6252757;28;20775;-81
2023/08/10 06:47:24;;;;;;;5.07;3.57;;;16.80;61.90;;;;;;6267504;28;20238;-85
2023/08/10 06:50:38;;;;;;;6.30;3.20;;;16.90;62.20;;;;;;6298028;28;20209;-84
2023/08/10 06:53:41;;;;;;;5.47;3.17;;;17.10;61.70;;;;;;6298591;28;20238;-80
2023/08/10 06:56:44;;;;;;;6.77;3.37;;;17.20;60.90;;;;;;6292757;28;20225;-83
2023/08/10 06:59:48;;;;;;;6.07;3.30;;;17.20;61.00;;;;;;6271269;28;20315;-80
2023/08/10 07:02:54;;;;;;;7.67;3.33;;;17.20;61.00;;;;;;6263878;28;20252;-79
2023/08/10 07:06:00;;;;;;;5.70;2.70;;;17.20;60.30;;;;;;6266211;28;20750;-82
2023/08/10 07:09:03;;;;;;;4.40;2.70;;;17.20;60.10;;;;;;6265137;28;20238;-81
2023/08/10 07:12:07;;;;;;;3.77;2.87;;;17.20;60.80;;;;;;6241491;28;20234;-82
2023/08/10 07:15:11;;;;;;;8.50;2.90;;;17.20;61.10;;;;;;6255499;28;20305;-80
2023/08/10 07:18:15;;;;;;;5.80;2.90;;;17.00;60.40;;;;;;6253258;28;20237;-81
2023/08/10 07:21:20;;;;;;;3.87;3.00;;;17.00;60.50;;;;;;6259988;28;20499;-81
2023/08/10 07:24:23;;;;;;;8.67;3.17;;;17.10;60.90;;;;;;6256734;28;20226;-82
2023/08/10 07:27:27;;;;;;;6.60;2.83;;;17.30;60.00;;;;;;6249297;28;20234;-82
2023/08/10 07:30:30;;;;;;;3.83;2.30;;;17.60;59.60;;;;;;6254147;28;20237;-82
2023/08/10 07:33:33;;;;;;;4.43;2.90;;;17.80;59.40;;;;;;6251126;28;20239;-82
2023/08/10 07:36:38;;;;;;;7.40;3.40;;;17.90;59.50;;;;;;6262750;28;20296;-82
2023/08/10 07:39:41;;;;;;;4.00;2.90;;;18.00;58.70;;;;;;6264940;28;20238;-80
2023/08/10 07:42:44;;;;;;;4.13;3.10;;;18.10;58.70;;;;;;6255753;28;20245;-82
2023/08/10 07:45:47;;;;;;;5.93;2.73;;;18.10;59.00;;;;;;6256812;28;20235;-80
2023/08/10 07:48:51;;;;;;;4.73;2.57;;;18.10;57.00;;;;;;6262368;28;20261;-80
2023/08/10 07:51:55;;;;;;;4.57;2.60;;;17.90;58.40;;;;;;6264343;28;20261;-81
2023/08/10 07:54:58;;;;;;;4.30;2.60;;;18.00;57.70;;;;;;6261841;28;20585;-82
2023/08/10 07:58:01;;;;;;;6.17;2.20;;;18.00;57.50;;;;;;6256749;28;20242;-81
2023/08/10 08:01:07;;;;;;;3.20;2.33;;;18.10;56.50;;;;;;6257128;28;20253;-81
2023/08/10 08:04:12;;;;;;;2.80;2.50;;;18.10;56.20;;;;;;6241243;28;20231;-81
2023/08/10 08:07:16;;;;;;;3.87;2.67;;;18.20;55.70;;;;;;6257748;28;20629;-80
2023/08/10 08:10:20;;;;;;;2.83;2.63;;;18.50;56.10;;;;;;6263702;28;20257;-82
2023/08/10 08:13:23;;;;;;;3.33;2.50;;;18.60;55.60;;;;;;6262132;28;20684;-80
2023/08/10 08:16:27;;;;;;;3.93;2.40;;;18.60;56.10;;;;;;6264501;28;20330;-81
2023/08/10 08:19:34;;;;;;;3.27;2.37;;;18.60;54.70;;;;;;6263721;28;20242;-83
2023/08/10 08:22:38;;;;;;;2.70;2.57;;;18.50;55.40;;;;;;6262938;28;20300;-81
2023/08/10 08:25:42;;;;;;;4.50;3.00;;;18.40;55.00;;;;;;6257836;28;20282;-83
2023/08/10 08:28:46;;;;;;;3.13;2.30;;;18.40;56.00;;;;;;6260054;28;20771;-81
2023/08/10 08:31:49;;;;;;;2.53;2.33;;;18.30;55.80;;;;;;6263314;28;20234;-81
2023/08/10 08:34:52;;;;;;;5.03;2.47;;;18.20;54.40;;;;;;6255462;28;20241;-81
2023/08/10 08:37:57;;;;;;;2.70;2.23;;;18.20;54.50;;;;;;6254019;28;20246;-83
2023/08/10 08:41:03;;;;;;;2.63;2.20;;;18.30;54.50;;;;;;6251244;28;20241;-80
2023/08/10 08:44:08;;;;;;;2.67;2.40;;;18.40;54.10;;;;;;6263056;28;20238;-82
2023/08/10 08:47:11;;;;;;;3.13;2.70;;;18.60;54.50;;;;;;6263512;28;20245;-81
2023/08/10 08:50:16;;;;;;;3.27;2.20;;;18.50;54.00;;;;;;6257306;28;20721;-81
2023/08/10 08:53:21;;;;;;;5.00;2.33;;;18.70;54.40;;;;;;6261218;28;20241;-80
2023/08/10 08:56:24;;;;;;;2.87;2.43;;;18.90;53.90;;;;;;6258866;28;20957;-82
2023/08/10 08:59:27;;;;;;;8.10;2.83;;;19.20;55.00;;;;;;6259879;28;20300;-82
2023/08/10 09:02:30;;;;;;;2.37;2.20;;;19.40;53.40;;;;;;6260129;28;20874;-82
2023/08/10 09:05:34;;;;;;;4.33;2.70;;;19.50;53.80;;;;;;6262068;28;20230;-81
2023/08/10 09:08:39;;;;;;;3.47;2.70;;;19.60;53.40;;;;;;6255615;28;20246;-81
2023/08/10 09:11:42;;;;;;;6.73;2.83;;;19.60;52.50;;;;;;6259674;28;21583;-80
2023/08/10 09:15:02;;;;;;;3.60;2.17;;;19.50;53.00;;;;;;6261430;28;20238;-82
2023/08/10 09:18:05;;;;;;;2.90;2.70;;;19.30;54.30;;;;;;6251681;28;20274;-83
2023/08/10 09:21:14;;;;;;;5.13;3.00;;;19.40;54.30;;;;;;6228730;28;20316;-81
2023/08/10 09:24:19;;;;;;;3.23;2.33;;;19.30;53.70;;;;;;6261820;28;20319;-81
2023/08/10 09:27:24;;;;;;;2.60;2.47;;;19.20;53.60;;;;;;6262124;28;20229;-80
2023/08/10 09:30:33;;;;;;;4.87;2.53;;;19.30;52.60;;;;;;6258198;28;20313;-83
2023/08/10 09:33:38;;;;;;;5.80;2.60;;;19.20;52.50;;;;;;6260052;28;20237;-81
2023/08/10 09:36:41;;;;;;;4.10;3.00;;;19.10;53.70;;;;;;6260701;28;20952;-80
2023/08/10 09:39:46;;;;;;;2.77;2.30;;;19.10;53.30;;;;;;6252127;28;20242;-80
2023/08/10 09:42:49;;;;;;;4.37;3.00;;;19.10;54.10;;;;;;6260051;28;20242;-81
2023/08/10 09:46:04;;;;;;;5.17;2.70;;;19.10;54.20;;;;;;6261264;28;20718;-82
2023/08/10 09:49:07;;;;;;;3.03;2.80;;;19.20;53.70;;;;;;6241951;28;20376;-82
2023/08/10 09:52:10;;;;;;;2.83;2.50;;;19.20;54.70;;;;;;6261845;28;20260;-80
2023/08/10 09:55:14;;;;;;;3.47;2.70;;;19.40;55.50;;;;;;6261786;28;20230;-82
2023/08/10 09:58:19;;;;;;;4.03;3.07;;;19.50;54.30;;;;;;6254994;28;20234;-81
2023/08/10 10:01:22;;;;;;;3.77;2.63;;;20.00;53.50;;;;;;6259568;28;20718;-80
2023/08/10 10:04:27;;;;;;;4.40;2.63;;;20.30;52.80;;;;;;6262341;28;20245;-81
2023/08/10 10:07:31;;;;;;;2.37;2.17;;;20.60;52.80;;;;;;6257343;28;20234;-81
2023/08/10 10:10:37;;;;;;;3.70;2.43;;;20.80;52.90;;;;;;6259938;28;20886;-81
2023/08/10 10:13:41;;;;;;;3.80;2.60;;;20.80;53.20;;;;;;6261580;28;20419;-81
2023/08/10 10:16:45;;;;;;;5.17;2.90;;;20.90;52.20;;;;;;6261373;28;20238;-81
2023/08/10 10:19:51;;;;;;;3.57;3.27;;;21.00;51.70;;;;;;6256799;28;20334;-82
2023/08/10 10:22:55;;;;;;;5.13;3.00;;;20.90;51.50;;;;;;6263707;28;20248;-82
2023/08/10 10:26:02;;;;;;;2.70;2.50;;;21.10;50.90;;;;;;6261364;28;20233;-81
2023/08/10 10:29:15;;;;;;;7.47;2.63;;;21.10;51.50;;;;;;6257270;28;20647;-82
2023/08/10 10:32:19;;;;;;;3.90;2.80;;;21.10;50.70;;;;;;6254247;28;20234;-82
2023/08/10 10:35:24;;;;;;;3.90;2.00;;;21.00;51.60;;;;;;6250710;28;20233;-81
2023/08/10 10:38:27;;;;;;;3.77;2.83;;;20.50;51.70;;;;;;6260570;28;20430;-82
2023/08/10 10:41:34;;;;;;;7.17;2.90;;;19.90;53.30;;;;;;6247279;28;20250;-81
2023/08/10 10:45:03;;;;;;;3.57;3.00;;;20.10;53.00;;;;;;6233319;28;20635;-82
2023/08/10 10:48:06;;;;;;;6.57;3.20;;;20.10;52.30;;;;;;6260585;28;20238;-83
2023/08/10 10:51:10;;;;;;;2.50;2.30;;;19.70;52.80;;;;;;6254917;28;20748;-83
2023/08/10 10:54:14;;;;;;;3.33;2.70;;;19.40;52.90;;;;;;6263862;28;20802;-83
2023/08/10 10:57:19;;;;;;;4.90;2.80;;;19.10;53.70;;;;;;6260931;28;20245;-82
2023/08/10 11:00:23;;;;;;;3.10;2.43;;;19.20;54.00;;;;;;6262491;28;20241;-83
2023/08/10 11:03:29;;;;;;;2.63;2.43;;;19.30;53.70;;;;;;6261387;28;20238;-81
2023/08/10 11:06:38;;;;;;;2.50;2.40;;;19.50;54.20;;;;;;6263318;28;20229;-86
2023/08/10 11:09:41;;;;;;;3.37;2.23;;;19.40;53.20;;;;;;6255581;28;20233;-81
2023/08/10 11:12:48;;;;;;;2.60;2.50;;;19.70;53.10;;;;;;6266479;28;20222;-82
2023/08/10 11:15:52;;;;;;;2.20;2.10;;;19.90;53.00;;;;;;6257697;28;20238;-82
2023/08/10 11:18:58;;;;;;;5.03;2.40;;;20.00;52.80;;;;;;6269418;28;20311;-84
2023/08/10 11:22:02;;;;;;;2.73;2.53;;;20.10;52.40;;;;;;6249427;28;20234;-83
2023/08/10 11:25:12;;;;;;;3.30;2.30;;;20.50;52.10;;;;;;6238858;28;20268;-84
2023/08/10 11:28:19;;;;;;;3.53;2.30;;;20.90;51.30;;;;;;6248339;28;20490;-82
2023/08/10 11:31:23;;;;;;;4.53;2.63;;;21.10;51.60;;;;;;6269300;28;20238;-82
2023/08/10 11:34:26;;;;;;;5.40;2.90;;;21.10;50.80;;;;;;6265976;28;20317;-81
2023/08/10 11:37:30;;;;;;;3.50;3.20;;;20.80;51.50;;;;;;6259988;28;20603;-80
2023/08/10 11:40:34;;;;;;;3.50;2.80;;;20.60;52.20;;;;;;6257952;28;20246;-80
2023/08/10 11:43:40;;;;;;;2.80;2.60;;;20.90;51.90;;;;;;6261926;28;20299;-83
2023/08/10 11:46:45;;;;;;;4.77;2.60;;;21.00;51.70;;;;;;6260959;28;20233;-82
2023/08/10 11:49:49;;;;;;;2.50;2.30;;;21.10;51.60;;;;;;6264931;28;20250;-81
2023/08/10 11:52:53;;;;;;;4.80;3.17;;;21.10;51.20;;;;;;6263907;28;20257;-83
2023/08/10 11:55:57;;;;;;;3.03;2.83;;;20.80;51.70;;;;;;6267115;28;20226;-82
2023/08/10 11:59:11;;;;;;;4.17;2.90;;;21.00;51.50;;;;;;6257856;28;20234;-81
2023/08/10 12:02:19;;;;;;;3.47;2.80;;;21.00;51.50;;;;;;6259930;28;20397;-81
2023/08/10 12:05:33;;;;;;;6.07;3.00;;;21.00;51.00;;;;;;6265527;28;20260;-83
2023/08/10 12:08:38;;;;;;;3.10;2.90;;;20.80;52.40;;;;;;6264604;28;20327;-81
2023/08/10 12:11:48;;;;;;;4.37;2.60;;;20.70;52.70;;;;;;6259398;28;20245;-82
2023/08/10 12:14:54;;;;;;;4.43;2.77;;;20.80;52.30;;;;;;6259605;28;20231;-80
2023/08/10 12:17:58;;;;;;;3.20;3.00;;;20.70;52.10;;;;;;6257468;28;20607;-81
2023/08/10 12:21:01;;;;;;;2.50;2.30;;;20.60;51.60;;;;;;6264527;28;20936;-80
2023/08/10 12:24:04;;;;;;;3.40;3.10;;;20.80;51.60;;;;;;6264925;28;20264;-80
2023/08/10 12:27:08;;;;;;;3.00;2.80;;;20.90;51.40;;;;;;6263614;28;20296;-81
2023/08/10 12:30:13;;;;;;;3.77;2.60;;;20.90;51.60;;;;;;6261755;28;20771;-81
2023/08/10 12:33:17;;;;;;;3.30;2.80;;;21.00;51.60;;;;;;6266397;28;20261;-81
2023/08/10 12:36:20;;;;;;;3.00;2.73;;;21.00;52.00;;;;;;6264830;28;20266;-81
2023/08/10 12:39:23;;;;;;;3.60;2.93;;;21.10;51.60;;;;;;6280507;28;20238;-82
2023/08/10 12:42:27;;;;;;;5.90;2.47;;;21.40;50.50;;;;;;6282505;28;20290;-81
2023/08/10 12:45:32;;;;;;;4.47;2.97;;;21.20;50.20;;;;;;6282578;28;20226;-83
2023/08/10 12:48:35;;;;;;;3.30;3.00;;;21.40;51.20;;;;;;6275647;28;20242;-80
2023/08/10 12:51:38;;;;;;;3.50;3.27;;;21.50;50.40;;;;;;6276932;28;20230;-81
2023/08/10 12:54:41;;;;;;;3.30;3.07;;;21.30;50.80;;;;;;6275890;28;20229;-83
2023/08/10 12:57:45;;;;;;;3.57;2.90;;;21.40;50.40;;;;;;6281042;28;20245;-83
2023/08/10 13:00:50;;;;;;;2.87;2.60;;;21.60;50.40;;;;;;6273247;28;20270;-84
2023/08/10 13:03:53;;;;;;;3.47;3.13;;;21.70;50.40;;;;;;6282703;28;20261;-84
2023/08/10 13:06:58;;;;;;;3.83;2.30;;;21.90;49.80;;;;;;6275912;28;20230;-84
2023/08/10 13:10:02;;;;;;;2.90;2.70;;;22.00;49.60;;;;;;6277090;28;20261;-83
2023/08/10 13:13:05;;;;;;;2.97;2.77;;;22.00;49.10;;;;;;6277814;28;20268;-82
2023/08/10 13:16:10;;;;;;;3.33;2.33;;;22.10;49.00;;;;;;6269190;28;20242;-85
2023/08/10 13:19:17;;;;;;;3.50;2.40;;;21.90;49.10;;;;;;6274825;28;20230;-84
2023/08/10 13:22:21;;;;;;;4.43;2.80;;;21.70;49.60;;;;;;6279158;28;20234;-82
2023/08/10 13:25:24;;;;;;;3.10;2.80;;;21.50;50.20;;;;;;6273276;28;20795;-84
2023/08/10 13:28:27;;;;;;;5.07;3.20;;;21.80;49.80;;;;;;6276199;28;20889;-83
2023/08/10 13:31:32;;;;;;;2.40;2.20;;;22.10;48.60;;;;;;6277422;28;20693;-83
2023/08/10 13:34:35;;;;;;;2.67;2.50;;;22.20;48.20;;;;;;6280732;28;20225;-83
2023/08/10 13:37:39;;;;;;;3.87;2.43;;;22.20;48.50;;;;;;6245466;28;20226;-85
2023/08/10 13:40:42;;;;;;;4.27;2.87;;;22.00;48.60;;;;;;6273881;28;20233;-84
2023/08/10 13:43:48;;;;;;;2.57;2.47;;;22.20;48.70;;;;;;6277390;28;20262;-85
2023/08/10 13:46:53;;;;;;;3.00;2.67;;;22.10;48.90;;;;;;6278757;28;20230;-83
2023/08/10 13:49:56;;;;;;;3.03;2.70;;;21.90;48.80;;;;;;6275181;28;20241;-84
2023/08/10 13:52:59;;;;;;;2.30;2.10;;;21.80;48.90;;;;;;6278986;28;20226;-85
2023/08/10 13:56:02;;;;;;;3.00;2.90;;;21.70;49.00;;;;;;6274906;28;20237;-84
2023/08/10 13:59:05;;;;;;;2.83;2.67;;;21.50;49.80;;;;;;6273083;28;20299;-85
2023/08/10 14:02:10;;;;;;;3.73;2.30;;;21.40;49.20;;;;;;6266844;28;20233;-84
2023/08/10 14:05:13;;;;;;;3.53;2.70;;;21.10;49.50;;;;;;6274337;28;20276;-82
2023/08/10 14:08:17;;;;;;;2.93;2.17;;;21.10;50.10;;;;;;6270477;28;20235;-83
2023/08/10 14:11:22;;;;;;;2.67;2.57;;;21.30;49.40;;;;;;6273370;28;20241;-83
2023/08/10 14:14:27;;;;;;;2.60;2.47;;;21.40;49.80;;;;;;6269361;28;20245;-84
2023/08/10 14:17:32;;;;;;;3.70;2.87;;;21.50;50.10;;;;;;6249888;28;20286;-84
2023/08/10 14:20:36;;;;;;;2.83;2.63;;;21.80;49.90;;;;;;6248521;28;20306;-83
2023/08/10 14:23:39;;;;;;;3.37;2.10;;;22.00;47.90;;;;;;6266866;28;20226;-84
2023/08/10 14:26:42;;;;;;;2.43;2.33;;;22.30;48.20;;;;;;6257090;28;20415;-79
2023/08/10 14:29:45;;;;;;;3.37;2.40;;;22.50;48.40;;;;;;6252671;28;20238;-78
2023/08/10 14:32:50;;;;;;;2.33;2.20;;;22.40;47.90;;;;;;6241544;28;20245;-78
2023/08/10 14:35:54;;;;;;;2.80;2.30;;;22.30;48.00;;;;;;6246817;28;20242;-79
2023/08/10 14:38:57;;;;;;;2.27;2.13;;;22.00;48.50;;;;;;6248602;28;20234;-80
2023/08/10 14:42:00;;;;;;;4.00;2.53;;;21.90;48.20;;;;;;6257464;28;20792;-81
2023/08/10 14:45:04;;;;;;;2.73;2.50;;;21.80;48.10;;;;;;6255844;28;20254;-79
2023/08/10 14:48:09;;;;;;;2.23;2.13;;;21.70;48.80;;;;;;6246424;28;20612;-79
2023/08/10 14:51:12;;;;;;;2.80;2.60;;;21.50;49.10;;;;;;6250357;28;20281;-82
2023/08/10 14:54:20;;;;;;;2.53;2.33;;;21.50;48.50;;;;;;6247528;28;20227;-84
2023/08/10 14:57:23;;;;;;;3.57;2.60;;;21.50;48.20;;;;;;6236768;28;20231;-83
2023/08/10 15:00:30;;;;;;;3.00;2.90;;;21.60;48.70;;;;;;6236636;28;20242;-84
2023/08/10 15:03:38;;;;;;;3.07;2.87;;;21.50;49.20;;;;;;6231414;28;20727;-81
2023/08/10 15:06:41;;;;;;;3.03;2.73;;;21.70;48.40;;;;;;6253751;28;20257;-81
2023/08/10 15:09:44;;;;;;;2.37;2.27;;;21.70;48.30;;;;;;6258008;28;20234;-83
2023/08/10 15:12:48;;;;;;;3.80;2.60;;;21.70;48.10;;;;;;6231632;28;20301;-84
2023/08/10 15:15:54;;;;;;;2.60;2.50;;;21.90;48.50;;;;;;6257260;28;20657;-85
2023/08/10 15:18:59;;;;;;;4.47;4.03;;;22.00;48.70;;;;;;6260008;28;20238;-85
2023/08/10 15:22:02;;;;;;;3.00;2.80;;;21.90;48.80;;;;;;6268595;28;20231;-82
2023/08/10 15:25:08;;;;;;;2.73;2.63;;;21.90;47.80;;;;;;6269926;28;20242;-82
2023/08/10 15:28:12;;;;;;;3.47;2.43;;;21.70;47.70;;;;;;6269389;28;20242;-79
2023/08/10 15:31:15;;;;;;;2.67;2.47;;;21.70;48.40;;;;;;6259145;28;20276;-77
2023/08/10 15:34:20;;;;;;;2.53;2.40;;;21.70;48.20;;;;;;6256556;28;20242;-79
2023/08/10 15:37:23;;;;;;;2.63;2.43;;;21.70;48.00;;;;;;6263099;28;20884;-80
2023/08/10 15:40:26;;;;;;;5.23;2.57;;;21.90;48.00;;;;;;6266962;28;20238;-82
2023/08/10 15:43:29;;;;;;;2.87;2.60;;;22.90;46.50;;;;;;6266638;28;20238;-80
2023/08/10 15:46:32;;;;;;;2.63;2.47;;;23.10;46.40;;;;;;6274960;28;20257;-81
2023/08/10 15:49:37;;;;;;;2.43;2.33;;;22.80;46.90;;;;;;6272190;28;20253;-79
2023/08/10 15:52:40;;;;;;;3.00;2.70;;;22.60;47.30;;;;;;6269961;28;20639;-82
2023/08/10 15:55:44;;;;;;;2.77;2.50;;;22.30;47.80;;;;;;6274350;28;20233;-77
2023/08/10 15:58:51;;;;;;;2.87;2.53;;;22.40;47.20;;;;;;6266624;28;20250;-79
2023/08/10 16:01:54;;;;;;;2.50;2.40;;;22.60;47.00;;;;;;6273542;28;20246;-77